Time;durP1;ratioP1;P1;durP2;ratioP2;P2;SDS_P1;SDS_P2;PMS_P1;PMS_P2;Temp;Humidity;BMP_temperature;BMP_pressure;BME280_temperature;BME280_humidity;BME280_pressure;Samples;Min_cycle;Max_cycle;Signal;HPM_P1;HPM_P2
2022/05/13 00:01:51;;;;;;;;;;;;;;;18.58;90.27;99102.75;5029046;28;19932;-43
2022/05/13 00:04:16;;;;;;;;;;;;;;;18.26;91.19;99107.38;5030735;28;19947;-43
2022/05/13 00:06:41;;;;;;;;;;;;;;;18.35;93.79;99107.63;5029343;28;20434;-43
2022/05/13 00:09:07;;;;;;;;;;;;;;;18.61;91.79;99102.56;5033620;28;20724;-43
2022/05/13 00:11:32;;;;;;;;;;;;;;;18.64;91.03;99107.59;5031116;28;19920;-43
2022/05/13 00:13:57;;;;;;;;;;;;;;;18.45;91.57;99109.66;5028837;28;19921;-43
2022/05/13 00:16:22;;;;;;;;;;;;;;;18.83;91.67;99102.03;5030570;28;19967;-43
2022/05/13 00:18:47;;;;;;;;;;;;;;;18.73;90.52;99107.00;5030784;28;21089;-43
2022/05/13 00:21:13;;;;;;;;;;;;;;;18.86;90.42;99108.84;5028294;28;19925;-43
2022/05/13 00:23:38;;;;;;;;;;;;;;;18.64;91.47;99104.97;5032000;28;19917;-43
2022/05/13 00:26:03;;;;;;;;;;;;;;;18.81;91.10;99104.75;5029092;28;19975;-43
2022/05/13 00:28:29;;;;;;;;;;;;;;;18.95;88.78;99097.81;5031700;28;20974;-43
2022/05/13 00:30:54;;;;;;;;;;;;;;;19.09;88.84;99096.91;5026353;28;20054;-44
2022/05/13 00:33:20;;;;;;;;;;;;;;;19.04;88.87;99098.97;5030111;28;19921;-43
2022/05/13 00:35:45;;;;;;;;;;;;;;;19.02;88.86;99099.06;5030764;28;19921;-43
2022/05/13 00:38:10;;;;;;;;;;;;;;;19.08;89.23;99103.06;5030736;28;19920;-44
2022/05/13 00:40:36;;;;;;;;;;;;;;;19.11;88.80;99101.09;5013824;28;20676;-44
2022/05/13 00:43:02;;;;;;;;;;;;;;;19.02;89.24;99097.31;5030513;28;20588;-43
2022/05/13 00:45:27;;;;;;;;;;;;;;;18.98;89.59;99095.00;5032747;28;20043;-43
2022/05/13 00:47:53;;;;;;;;;;;;;;;18.51;91.33;99094.47;5015471;28;19921;-43
2022/05/13 00:50:18;;;;;;;;;;;;;;;18.55;92.96;99092.53;5032236;28;20027;-43
2022/05/13 00:52:45;;;;;;;;;;;;;;;18.58;92.25;99100.13;5015888;28;20393;-43
2022/05/13 00:55:11;;;;;;;;;;;;;;;18.22;93.29;99096.28;5010206;28;19971;-43
2022/05/13 00:57:36;;;;;;;;;;;;;;;18.31;94.30;99095.72;5004010;28;20359;-43
2022/05/13 01:00:04;;;;;;;;;;;;;;;18.23;94.40;99087.56;5013856;28;19927;-43
2022/05/13 01:02:30;;;;;;;;;;;;;;;18.04;94.94;99093.06;5010997;28;19944;-43
2022/05/13 01:04:55;;;;;;;;;;;;;;;18.15;94.93;99084.56;5013582;28;19925;-43
2022/05/13 01:07:21;;;;;;;;;;;;;;;18.18;95.99;99080.00;5035022;28;19916;-43
2022/05/13 01:09:50;;;;;;;;;;;;;;;18.26;95.64;99087.34;5010908;28;19974;-43
2022/05/13 01:12:16;;;;;;;;;;;;;;;18.27;95.93;99086.44;5028392;28;19921;-43
2022/05/13 01:14:44;;;;;;;;;;;;;;;18.39;95.49;99083.03;5034125;28;19921;-43
2022/05/13 01:20:04;;;;;;;;;;;;;;;18.67;94.07;99070.84;5018555;28;19978;-43
2022/05/13 01:22:30;;;;;;;;;;;;;;;18.64;93.34;99071.06;5032685;28;19924;-43
2022/05/13 01:24:56;;;;;;;;;;;;;;;18.70;92.62;99070.69;5035909;28;19963;-43
2022/05/13 01:27:21;;;;;;;;;;;;;;;18.79;92.09;99066.66;5034423;28;19991;-43
2022/05/13 01:29:47;;;;;;;;;;;;;;;18.64;91.64;99063.25;5034939;28;19921;-44
2022/05/13 01:32:12;;;;;;;;;;;;;;;18.64;92.80;99071.06;5033862;28;19921;-44
2022/05/13 01:34:37;;;;;;;;;;;;;;;18.66;93.56;99063.97;5033547;28;20442;-44
2022/05/13 01:37:02;;;;;;;;;;;;;;;18.63;93.90;99074.59;5032727;28;19971;-44
2022/05/13 01:39:28;;;;;;;;;;;;;;;18.49;94.70;99066.81;5031535;28;20016;-45
2022/05/13 01:41:53;;;;;;;;;;;;;;;18.50;95.32;99071.94;5032134;28;20031;-44
2022/05/13 01:44:18;;;;;;;;;;;;;;;18.36;96.69;99070.22;5032344;28;19924;-44
2022/05/13 01:46:44;;;;;;;;;;;;;;;18.58;95.87;99063.63;5032185;28;19964;-44
2022/05/13 01:49:10;;;;;;;;;;;;;;;18.49;96.92;99072.03;5034287;28;19979;-44
2022/05/13 01:51:35;;;;;;;;;;;;;;;18.43;97.31;99068.06;5030291;28;19927;-44
2022/05/13 01:54:00;;;;;;;;;;;;;;;18.43;97.89;99072.41;5015409;28;20129;-44
2022/05/13 01:56:26;;;;;;;;;;;;;;;18.48;97.93;99065.16;5031620;28;19920;-44
2022/05/13 01:58:51;;;;;;;;;;;;;;;18.47;97.90;99072.13;5032007;28;19920;-44
2022/05/13 02:01:16;;;;;;;;;;;;;;;18.25;98.26;99070.03;5033097;28;19921;-42
2022/05/13 02:03:44;;;;;;;;;;;;;;;18.36;98.10;99065.00;5029274;28;19964;-44
2022/05/13 02:06:10;;;;;;;;;;;;;;;18.26;98.40;99068.28;5011740;28;19931;-44
2022/05/13 02:08:36;;;;;;;;;;;;;;;18.20;99.13;99064.28;5028843;28;20353;-44
2022/05/13 02:11:01;;;;;;;;;;;;;;;18.34;97.02;99064.25;5030905;28;19925;-44
2022/05/13 02:13:27;;;;;;;;;;;;;;;18.43;99.11;99072.41;5030084;28;20083;-44
2022/05/13 02:15:52;;;;;;;;;;;;;;;18.39;99.29;99077.84;5028709;28;20537;-44
2022/05/13 02:18:17;;;;;;;;;;;;;;;18.26;99.00;99076.91;5025773;28;19939;-44
2022/05/13 02:20:42;;;;;;;;;;;;;;;18.35;99.54;99071.13;5028921;28;19921;-44
2022/05/13 02:23:08;;;;;;;;;;;;;;;18.37;99.19;99069.25;5029507;28;19921;-44
2022/05/13 02:25:33;;;;;;;;;;;;;;;18.41;98.64;99074.31;5010670;28;19925;-44
2022/05/13 02:27:58;;;;;;;;;;;;;;;18.02;99.96;99075.81;5027584;28;20912;-44
2022/05/13 02:30:24;;;;;;;;;;;;;;;18.05;100.00;99080.88;5028965;28;20386;-44
2022/05/13 02:32:49;;;;;;;;;;;;;;;18.30;99.30;99077.59;5028430;28;19925;-44
2022/05/13 02:35:14;;;;;;;;;;;;;;;18.32;99.28;99081.75;5029301;28;19924;-44
2022/05/13 02:37:40;;;;;;;;;;;;;;;18.30;99.89;99082.78;5029814;28;19928;-44
2022/05/13 02:40:05;;;;;;;;;;;;;;;18.18;100.00;99069.59;5033406;28;19925;-44
2022/05/13 02:42:30;;;;;;;;;;;;;;;18.25;100.00;99074.44;5030584;28;19925;-44
2022/05/13 02:44:56;;;;;;;;;;;;;;;18.19;100.00;99066.03;5037555;28;19921;-44
2022/05/13 02:47:21;;;;;;;;;;;;;;;18.33;100.00;99069.56;5029223;28;19970;-44
2022/05/13 02:49:46;;;;;;;;;;;;;;;18.21;100.00;99075.56;5014148;28;19921;-44
2022/05/13 02:52:11;;;;;;;;;;;;;;;18.06;100.00;99074.72;5032973;28;19920;-44
2022/05/13 02:54:37;;;;;;;;;;;;;;;18.20;100.00;99077.31;5034259;28;19921;-44
2022/05/13 02:57:02;;;;;;;;;;;;;;;18.06;100.00;99069.50;5036455;28;20012;-44
2022/05/13 02:59:27;;;;;;;;;;;;;;;18.09;100.00;99074.53;5036557;28;20334;-44
2022/05/13 03:01:54;;;;;;;;;;;;;;;18.29;100.00;99068.94;5013675;28;20313;-44
2022/05/13 03:04:20;;;;;;;;;;;;;;;18.29;100.00;99071.53;5033021;28;19916;-44
2022/05/13 03:06:45;;;;;;;;;;;;;;;18.51;99.40;99067.56;5015622;28;19928;-44
2022/05/13 03:09:10;;;;;;;;;;;;;;;18.24;100.00;99073.56;5028649;28;19924;-44
2022/05/13 03:11:36;;;;;;;;;;;;;;;18.13;100.00;99071.66;5030739;28;19925;-44
2022/05/13 03:14:02;;;;;;;;;;;;;;;18.29;100.00;99068.94;5034034;28;19924;-44
2022/05/13 03:16:27;;;;;;;;;;;;;;;18.32;100.00;99065.28;5030290;28;19920;-44
2022/05/13 03:18:53;;;;;;;;;;;;;;;18.26;100.00;99066.50;5028545;28;19917;-44
2022/05/13 03:21:18;;;;;;;;;;;;;;;18.43;100.00;99056.75;5027555;28;19916;-44
2022/05/13 03:23:44;;;;;;;;;;;;;;;18.45;100.00;99054.91;5013516;28;19924;-44
2022/05/13 03:26:13;;;;;;;;;;;;;;;18.44;100.00;99055.84;5026868;28;19928;-45
2022/05/13 03:28:38;;;;;;;;;;;;;;;18.47;100.00;99053.88;5032957;28;19971;-44
2022/05/13 03:31:03;;;;;;;;;;;;;;;18.46;100.00;99053.97;5017464;28;20134;-44
2022/05/13 03:33:29;;;;;;;;;;;;;;;18.57;99.99;99059.34;5028747;28;19944;-44
2022/05/13 03:35:54;;;;;;;;;;;;;;;18.54;100.00;99051.72;5035260;28;19963;-44
2022/05/13 03:38:19;;;;;;;;;;;;;;;18.30;100.00;99060.16;5032822;28;19927;-44
2022/05/13 03:40:46;;;;;;;;;;;;;;;18.31;100.00;99054.00;5028832;28;19920;-44
2022/05/13 03:43:11;;;;;;;;;;;;;;;18.26;100.00;99048.25;5029059;28;20410;-44
2022/05/13 03:45:36;;;;;;;;;;;;;;;18.50;100.00;99042.44;5030937;28;19931;-44
2022/05/13 03:48:02;;;;;;;;;;;;;;;18.21;99.38;99036.44;5034574;28;19917;-44
2022/05/13 03:50:27;;;;;;;;;;;;;;;18.06;98.21;99038.22;5030107;28;19932;-44
2022/05/13 03:52:53;;;;;;;;;;;;;;;17.77;98.65;99040.84;5031435;28;19929;-44
2022/05/13 03:55:18;;;;;;;;;;;;;;;18.10;97.46;99029.28;5028351;28;19920;-44
2022/05/13 03:57:43;;;;;;;;;;;;;;;18.11;97.58;99028.34;5032385;28;19931;-44
2022/05/13 04:00:09;;;;;;;;;;;;;;;18.00;98.54;99033.41;5030249;28;19928;-44
2022/05/13 04:02:35;;;;;;;;;;;;;;;17.84;99.87;99023.94;5033206;28;19921;-44
2022/05/13 04:10:28;;;;;;;;;;;;;;;18.22;98.64;99030.28;5029351;28;19960;-44
2022/05/13 04:18:21;;;;;;;;;;;;;;;18.18;100.00;99029.66;5028279;28;19928;-44
2022/05/13 04:20:47;;;;;;;;;;;;;;;18.13;100.00;99029.94;5033529;28;19921;-44
2022/05/13 04:23:13;;;;;;;;;;;;;;;18.05;100.00;99031.34;5031100;28;20727;-44
2022/05/13 04:25:38;;;;;;;;;;;;;;;18.23;100.00;99037.19;5030571;28;20682;-44
2022/05/13 04:28:03;;;;;;;;;;;;;;;18.02;99.72;99041.94;5031287;28;20393;-44
2022/05/13 04:30:28;;;;;;;;;;;;;;;18.03;100.00;99038.44;5030044;28;20440;-44
2022/05/13 04:32:54;;;;;;;;;;;;;;;18.20;100.00;99030.41;5028474;28;19924;-44
2022/05/13 04:35:19;;;;;;;;;;;;;;;18.33;100.00;99031.28;5029404;28;19979;-44
2022/05/13 04:37:44;;;;;;;;;;;;;;;18.44;100.00;99032.38;5027977;28;19929;-44
2022/05/13 04:40:10;;;;;;;;;;;;;;;18.04;100.00;99047.91;5036219;28;19927;-44
2022/05/13 04:42:50;;;;;;;;;;;;;;;17.25;100.00;99067.38;5037386;28;19927;-44
2022/05/13 04:45:25;;;;;;;;;;;;;;;16.65;100.00;99079.41;5037148;28;19956;-44
2022/05/13 04:50:39;;;;;;;;;;;;;;;15.80;100.00;99114.25;5040301;28;19932;-44
2022/05/13 04:53:05;;;;;;;;;;;;;;;16.08;100.00;99105.88;5039221;28;19962;-44
2022/05/13 04:55:31;;;;;;;;;;;;;;;15.86;100.00;99116.53;5038846;28;20009;-44
2022/05/13 04:57:56;;;;;;;;;;;;;;;15.87;100.00;99122.56;5018288;28;19970;-44
2022/05/13 05:00:21;;;;;;;;;;;;;;;16.11;100.00;99120.47;5038002;28;19916;-44
2022/05/13 05:02:46;;;;;;;;;;;;;;;16.46;100.00;99109.94;5030899;28;19917;-42
2022/05/13 05:05:11;;;;;;;;;;;;;;;16.46;100.00;99100.34;5029737;28;19917;-44
2022/05/13 05:07:37;;;;;;;;;;;;;;;15.70;100.00;99113.03;5028546;28;19975;-44
2022/05/13 05:10:02;;;;;;;;;;;;;;;16.80;100.00;99105.50;5029083;28;19917;-44
2022/05/13 05:12:27;;;;;;;;;;;;;;;16.15;100.00;99121.97;5027908;28;19921;-44
2022/05/13 05:14:52;;;;;;;;;;;;;;;16.30;100.00;99121.13;5030811;28;19952;-44
2022/05/13 05:17:18;;;;;;;;;;;;;;;16.41;100.00;99106.75;5031642;28;20055;-44
2022/05/13 05:19:43;;;;;;;;;;;;;;;16.24;100.00;99107.66;5032409;28;20008;-44
2022/05/13 05:22:08;;;;;;;;;;;;;;;16.51;100.00;99106.16;5036505;28;20094;-44
2022/05/13 05:24:33;;;;;;;;;;;;;;;16.36;100.00;99108.75;5028993;28;20031;-42
2022/05/13 05:26:59;;;;;;;;;;;;;;;16.71;100.00;99097.25;5029265;28;20051;-44
2022/05/13 05:29:24;;;;;;;;;;;;;;;16.31;100.00;99124.59;5029476;28;19921;-45
2022/05/13 05:31:49;;;;;;;;;;;;;;;15.61;100.00;99129.91;5009089;28;19953;-44
2022/05/13 05:34:16;;;;;;;;;;;;;;;15.76;100.00;99130.06;5028575;28;20013;-44
2022/05/13 05:36:42;;;;;;;;;;;;;;;15.24;100.00;99144.72;5025496;28;20438;-44
2022/05/13 05:39:07;;;;;;;;;;;;;;;15.66;100.00;99146.09;5025542;28;19920;-44
2022/05/13 05:41:32;;;;;;;;;;;;;;;15.87;100.00;99149.41;5031263;28;19923;-44
2022/05/13 05:43:57;;;;;;;;;;;;;;;16.65;100.00;99148.75;5027981;28;20450;-44
2022/05/13 05:46:23;;;;;;;;;;;;;;;15.95;100.00;99161.16;5030517;28;20732;-44
2022/05/13 05:48:48;;;;;;;;;;;;;;;16.44;100.00;99149.00;5024463;28;19923;-44
2022/05/13 05:51:13;;;;;;;;;;;;;;;16.56;100.00;99157.06;5030157;28;19924;-44
2022/05/13 05:59:07;;;;;;;;;;;;;;;16.78;100.00;99164.53;5025768;28;19967;-44
2022/05/13 06:01:32;;;;;;;;;;;;;;;15.87;100.00;99180.56;5027370;28;19917;-44
2022/05/13 06:03:57;;;;;;;;;;;;;;;16.16;100.00;99175.59;5028303;28;19963;-44
2022/05/13 06:06:22;;;;;;;;;;;;;;;16.83;100.00;99170.34;5028330;28;20111;-44
2022/05/13 06:08:49;;;;;;;;;;;;;;;16.17;100.00;99182.50;5025073;28;20566;-44
2022/05/13 06:11:15;;;;;;;;;;;;;;;16.86;100.00;99175.41;5012117;28;19974;-44
2022/05/13 06:13:40;;;;;;;;;;;;;;;16.44;100.00;99184.56;5013809;28;19917;-44
2022/05/13 06:16:07;;;;;;;;;;;;;;;16.84;100.00;99175.47;5027871;28;19928;-44
2022/05/13 06:18:33;;;;;;;;;;;;;;;16.77;100.00;99184.50;5027177;28;19919;-44
2022/05/13 06:20:59;;;;;;;;;;;;;;;16.85;100.00;99189.31;5029744;28;19923;-44
2022/05/13 06:23:25;;;;;;;;;;;;;;;16.47;100.00;99182.63;5014668;28;20474;-44
2022/05/13 06:25:50;;;;;;;;;;;;;;;16.40;100.00;99188.22;5021159;28;19956;-44
2022/05/13 06:28:15;;;;;;;;;;;;;;;16.43;100.00;99201.09;5028713;28;20568;-44
2022/05/13 06:30:41;;;;;;;;;;;;;;;16.14;100.00;99192.19;5030027;28;20708;-44
2022/05/13 06:33:06;;;;;;;;;;;;;;;16.67;100.00;99196.31;5026788;28;19928;-44
2022/05/13 06:35:32;;;;;;;;;;;;;;;16.36;100.00;99207.53;5029801;28;19962;-44
2022/05/13 06:37:57;;;;;;;;;;;;;;;16.29;100.00;99207.84;5031338;28;19917;-44
2022/05/13 06:40:22;;;;;;;;;;;;;;;16.57;100.00;99206.38;5018265;28;19917;-44
2022/05/13 06:42:49;;;;;;;;;;;;;;;16.14;100.00;99219.00;5027826;28;19984;-44
2022/05/13 06:45:14;;;;;;;;;;;;;;;16.75;100.00;99206.31;5033119;28;19927;-44
2022/05/13 06:47:39;;;;;;;;;;;;;;;16.48;100.00;99232.88;5013093;28;19921;-44
2022/05/13 06:50:06;;;;;;;;;;;;;;;16.66;100.00;99231.06;5027499;28;20473;-44
2022/05/13 06:52:32;;;;;;;;;;;;;;;17.00;100.00;99217.09;5031149;28;19921;-44
2022/05/13 06:54:57;;;;;;;;;;;;;;;16.55;100.00;99229.03;5031113;28;20535;-44
2022/05/13 06:57:22;;;;;;;;;;;;;;;17.11;100.00;99219.94;5037616;28;19924;-44
2022/05/13 06:59:48;;;;;;;;;;;;;;;16.94;100.00;99230.44;5032778;28;19916;-43
2022/05/13 07:02:17;;;;;;;;;;;;;;;16.50;100.00;99237.06;5027609;28;19917;-44
2022/05/13 07:04:42;;;;;;;;;;;;;;;17.10;100.00;99231.25;5015066;28;19917;-44
2022/05/13 07:07:07;;;;;;;;;;;;;;;18.12;100.00;99209.88;5032753;28;19923;-44
2022/05/13 07:09:34;;;;;;;;;;;;;;;17.75;100.00;99212.00;5035438;28;19917;-44
2022/05/13 07:11:59;;;;;;;;;;;;;;;17.90;100.00;99223.31;5034305;28;20023;-44
2022/05/13 07:14:24;;;;;;;;;;;;;;;17.59;100.00;99226.84;5016655;28;20413;-44
2022/05/13 07:16:49;;;;;;;;;;;;;;;18.48;100.00;99216.41;5032769;28;19979;-44
2022/05/13 07:19:15;;;;;;;;;;;;;;;18.18;100.00;99214.72;5036903;28;20006;-44
2022/05/13 07:21:40;;;;;;;;;;;;;;;18.65;100.00;99218.81;5035397;28;20007;-44
2022/05/13 07:24:05;;;;;;;;;;;;;;;17.77;100.00;99223.19;5029723;28;19978;-44
2022/05/13 07:26:31;;;;;;;;;;;;;;;19.05;100.00;99223.34;5034099;28;20015;-44
2022/05/13 07:28:56;;;;;;;;;;;;;;;17.42;100.00;99239.03;5017398;28;20561;-44
2022/05/13 07:31:21;;;;;;;;;;;;;;;18.19;100.00;99222.44;5034186;28;19924;-44
2022/05/13 07:33:46;;;;;;;;;;;;;;;18.76;100.00;99229.41;5037776;28;19955;-44
2022/05/13 07:36:12;;;;;;;;;;;;;;;18.27;100.00;99242.00;5031563;28;20011;-44
2022/05/13 07:41:16;;;;;;;;;;;;;;;18.32;100.00;99232.97;5036087;28;20012;-44
2022/05/13 07:41:24;;;;;;;;;;;;;;;18.11;100.00;99229.91;5031842;28;20432;-44
2022/05/13 07:43:49;;;;;;;;;;;;;;;18.48;100.00;99221.63;5032598;28;19982;-44
2022/05/13 07:46:14;;;;;;;;;;;;;;;19.71;100.00;99224.34;5014504;28;20015;-44
2022/05/13 07:48:40;;;;;;;;;;;;;;;18.91;100.00;99234.66;5013489;28;20027;-44
2022/05/13 07:51:06;;;;;;;;;;;;;;;18.63;100.00;99236.31;5033745;28;19921;-44
2022/05/13 07:53:31;;;;;;;;;;;;;;;19.16;98.52;99232.16;5033054;28;19917;-44
2022/05/13 07:55:57;;;;;;;;;;;;;;;19.28;100.00;99232.31;5031896;28;19924;-44
2022/05/13 07:58:22;;;;;;;;;;;;;;;19.97;98.86;99231.25;5028600;28;20332;-42
2022/05/13 08:00:48;;;;;;;;;;;;;;;20.78;91.19;99227.50;5034349;28;19948;-44
2022/05/13 08:03:14;;;;;;;;;;;;;;;19.90;95.46;99229.16;5034777;28;19979;-44
2022/05/13 08:05:42;;;;;;;;;;;;;;;19.74;93.66;99227.56;5013246;28;19921;-44
2022/05/13 08:08:30;;;;;;;;;;;;;;;20.31;93.86;99223.75;5005328;28;19920;-44
2022/05/13 08:10:55;;;;;;;;;;;;;;;19.70;99.01;99238.31;5013189;28;19920;-44
2022/05/13 08:13:21;;;;;;;;;;;;;;;19.37;95.84;99231.72;5028949;28;19921;-44
2022/05/13 08:15:46;;;;;;;;;;;;;;;21.00;94.70;99225.94;5026464;28;19932;-44
2022/05/13 08:18:12;;;;;;;;;;;;;;;19.81;94.90;99235.84;5030184;28;19917;-44
2022/05/13 08:20:37;;;;;;;;;;;;;;;21.08;91.61;99231.50;5015051;28;19946;-44
2022/05/13 08:23:02;;;;;;;;;;;;;;;19.50;92.57;99227.41;5029388;28;19917;-44
2022/05/13 08:25:28;;;;;;;;;;;;;;;21.90;84.30;99215.91;5034118;28;19917;-44
2022/05/13 08:27:53;;;;;;;;;;;;;;;20.23;88.81;99236.50;5032010;28;19967;-44
2022/05/13 08:30:18;;;;;;;;;;;;;;;19.94;91.38;99226.25;5031673;28;19917;-44
2022/05/13 08:32:43;;;;;;;;;;;;;;;20.89;88.54;99214.47;5033313;28;19956;-44
2022/05/13 08:35:09;;;;;;;;;;;;;;;20.32;87.01;99230.66;5014467;28;19917;-44
2022/05/13 08:37:42;;;;;;;;;;;;;;;19.34;90.11;99227.53;5028793;28;19966;-44
2022/05/13 08:40:10;;;;;;;;;;;;;;;19.75;93.76;99233.63;5035668;28;19967;-44
2022/05/13 08:42:41;;;;;;;;;;;;;;;19.26;93.01;99239.41;5009532;28;19948;-44
2022/05/13 08:45:10;;;;;;;;;;;;;;;19.22;95.38;99234.38;5007481;28;20445;-42
2022/05/13 08:47:38;;;;;;;;;;;;;;;19.91;91.90;99225.59;5024940;28;19920;-44
2022/05/13 08:50:03;;;;;;;;;;;;;;;20.29;84.23;99227.41;5027781;28;19917;-44
2022/05/13 08:53:06;;;;;;;;;;;;;;;20.72;85.61;99225.28;5024970;28;19982;-44
2022/05/13 08:55:35;;;;;;;;;;;;;;;21.19;84.27;99220.22;5031697;28;20023;-44
2022/05/13 08:58:03;;;;;;;;;;;;;;;20.53;84.47;99222.28;5027802;28;20397;-44
2022/05/13 09:00:34;;;;;;;;;;;;;;;21.25;83.48;99215.38;5012482;28;19953;-44
2022/05/13 09:03:01;;;;;;;;;;;;;;;20.13;80.15;99225.00;5032665;28;19924;-44
2022/05/13 09:05:27;;;;;;;;;;;;;;;19.70;85.76;99233.09;5013339;28;19917;-44
2022/05/13 09:07:52;;;;;;;;;;;;;;;19.42;83.04;99235.72;5011731;28;19916;-45
2022/05/13 09:10:18;;;;;;;;;;;;;;;19.60;84.03;99223.22;5027738;28;19986;-44
2022/05/13 09:12:57;;;;;;;;;;;;;;;20.24;79.23;99227.72;5031982;28;19928;-43
2022/05/13 09:15:30;;;;;;;;;;;;;;;20.88;77.56;99223.25;5006909;28;20015;-44
2022/05/13 09:18:14;;;;;;;;;;;;;;;19.85;80.36;99224.25;5007148;28;20720;-44
2022/05/13 09:20:55;;;;;;;;;;;;;;;20.44;72.45;99229.81;5026235;28;20004;-44
2022/05/13 09:23:20;;;;;;;;;;;;;;;20.02;72.19;99229.16;5027429;28;20524;-45
2022/05/13 09:25:53;;;;;;;;;;;;;;;19.67;75.06;99215.00;5025662;28;19921;-44
2022/05/13 09:28:18;;;;;;;;;;;;;;;21.53;68.72;99213.41;5031223;28;20333;-44
2022/05/13 09:30:48;;;;;;;;;;;;;;;20.90;69.56;99228.41;5028098;28;19921;-44
2022/05/13 09:33:19;;;;;;;;;;;;;;;21.86;67.99;99214.44;5010954;28;20439;-44
2022/05/13 09:35:44;;;;;;;;;;;;;;;19.89;66.36;99220.50;5030728;28;19920;-44
2022/05/13 09:38:14;;;;;;;;;;;;;;;20.83;69.94;99225.38;5030252;28;19940;-44
2022/05/13 09:40:39;;;;;;;;;;;;;;;20.92;64.46;99210.81;5027521;28;19917;-44
2022/05/13 09:43:04;;;;;;;;;;;;;;;20.22;67.97;99222.59;5028120;28;19923;-44
2022/05/13 09:45:33;;;;;;;;;;;;;;;20.24;66.60;99222.50;5013152;28;19916;-44
2022/05/13 09:48:00;;;;;;;;;;;;;;;20.39;64.08;99215.34;5008323;28;19913;-44
2022/05/13 09:50:28;;;;;;;;;;;;;;;20.60;68.49;99221.75;5026971;28;20841;-44
2022/05/13 09:52:53;;;;;;;;;;;;;;;21.72;67.16;99218.94;5032257;28;19921;-44
2022/05/13 09:55:32;;;;;;;;;;;;;;;22.34;59.38;99209.06;5025157;28;19924;-44
2022/05/13 09:58:00;;;;;;;;;;;;;;;21.06;63.15;99215.88;5025818;28;19921;-44
2022/05/13 10:00:36;;;;;;;;;;;;;;;20.50;70.42;99217.25;5010070;28;19966;-45
2022/05/13 10:03:06;;;;;;;;;;;;;;;20.10;69.62;99225.22;5026576;28;20011;-44
2022/05/13 10:05:34;;;;;;;;;;;;;;;20.14;73.23;99231.91;5027921;28;20150;-44
2022/05/13 10:08:01;;;;;;;;;;;;;;;20.09;69.17;99221.75;5024605;28;20006;-44
2022/05/13 10:16:16;;;;;;;;;;;;;;;20.15;71.30;99233.59;5024194;28;19992;-44
2022/05/13 10:18:45;;;;;;;;;;;;;;;20.48;72.41;99222.56;5009663;28;19917;-44
2022/05/13 10:21:15;;;;;;;;;;;;;;;20.54;72.69;99229.16;5007484;28;19988;-44
2022/05/13 10:23:42;;;;;;;;;;;;;;;21.64;71.90;99221.28;5014144;28;19996;-44
2022/05/13 10:26:11;;;;;;;;;;;;;;;21.18;73.06;99227.25;5014175;28;19956;-44
2022/05/13 10:28:59;;;;;;;;;;;;;;;21.48;68.04;99215.50;5006508;28;19967;-44
2022/05/13 10:31:26;;;;;;;;;;;;;;;20.59;71.16;99227.09;5020802;28;19921;-44
2022/05/13 10:33:55;;;;;;;;;;;;;;;20.76;66.13;99221.53;5009283;28;19940;-44
2022/05/13 10:36:29;;;;;;;;;;;;;;;21.51;66.23;99215.31;5024649;28;19917;-43
2022/05/13 10:38:55;;;;;;;;;;;;;;;21.23;66.34;99230.41;5005937;28;19929;-44
2022/05/13 10:41:23;;;;;;;;;;;;;;;21.25;69.02;99230.25;5024857;28;20333;-44
2022/05/13 10:43:57;;;;;;;;;;;;;;;22.11;63.33;99222.13;5025394;28;19920;-42
2022/05/13 10:46:26;;;;;;;;;;;;;;;21.98;62.88;99228.41;5024416;28;19970;-44
2022/05/13 10:48:52;;;;;;;;;;;;;;;20.59;69.40;99237.56;5006809;28;20011;-44
2022/05/13 10:51:17;;;;;;;;;;;;;;;20.79;67.98;99237.00;5007894;28;20031;-44
2022/05/13 10:54:01;;;;;;;;;;;;;;;20.02;71.46;99244.84;5024578;28;19924;-44
2022/05/13 10:56:40;;;;;;;;;;;;;;;20.57;69.02;99240.31;5028140;28;19920;-44
2022/05/13 10:59:18;;;;;;;;;;;;;;;20.38;71.68;99243.31;5024733;28;19925;-44
2022/05/13 11:01:51;;;;;;;;;;;;;;;20.29;70.56;99241.31;5026357;28;19924;-44
2022/05/13 11:04:28;;;;;;;;;;;;;;;20.73;69.41;99237.44;5007700;28;19984;-44
2022/05/13 11:06:53;;;;;;;;;;;;;;;21.37;69.31;99233.78;5009944;28;20007;-44
2022/05/13 11:09:24;;;;;;;;;;;;;;;20.89;69.97;99240.66;5026027;28;19917;-44
2022/05/13 11:11:49;;;;;;;;;;;;;;;20.93;71.75;99236.03;5024728;28;19928;-44
2022/05/13 11:14:27;;;;;;;;;;;;;;;21.03;67.42;99236.22;5007453;28;19917;-44
2022/05/13 11:16:59;;;;;;;;;;;;;;;21.76;70.02;99234.44;5025133;28;19923;-43
2022/05/13 11:20:00;;;;;;;;;;;;;;;22.60;69.32;99229.81;5027922;28;19916;-42
2022/05/13 11:22:28;;;;;;;;;;;;;;;21.91;64.68;99238.53;4961012;28;19918;-42
2022/05/13 11:28:02;;;;;;;;;;;;;;;20.80;67.13;99251.78;5026518;28;20009;-44
2022/05/13 11:30:34;;;;;;;;;;;;;;;23.57;63.69;99231.66;5027101;28;19959;-44
2022/05/13 11:33:07;;;;;;;;;;;;;;;23.34;60.35;99230.91;5008925;28;19936;-44
2022/05/13 11:35:40;;;;;;;;;;;;;;;23.41;58.79;99231.25;5009984;28;20006;-44
2022/05/13 11:38:28;;;;;;;;;;;;;;;20.64;67.42;99256.38;5028971;28;20596;-44
2022/05/13 11:40:59;;;;;;;;;;;;;;;20.39;72.72;99258.06;4994018;28;19917;-44
2022/05/13 11:43:25;;;;;;;;;;;;;;;21.28;67.92;99253.63;5010330;28;20483;-44
2022/05/13 11:46:07;;;;;;;;;;;;;;;21.03;72.56;99260.63;5025407;28;19928;-44
2022/05/13 11:48:32;;;;;;;;;;;;;;;20.72;69.33;99258.50;5015528;28;19970;-44
2022/05/13 11:51:04;;;;;;;;;;;;;;;22.55;66.81;99251.16;5029978;28;19920;-44
2022/05/13 11:53:55;;;;;;;;;;;;;;;23.10;63.76;99259.16;5007199;28;19932;-42
2022/05/13 11:56:29;;;;;;;;;;;;;;;22.50;69.14;99262.03;5005306;28;19921;-44
2022/05/13 11:59:01;;;;;;;;;;;;;;;22.50;63.42;99259.41;5027063;28;19925;-42
2022/05/13 12:01:38;;;;;;;;;;;;;;;22.88;62.78;99260.00;5032435;28;19921;-44
2022/05/13 12:04:12;;;;;;;;;;;;;;;23.28;55.70;99257.66;5031317;28;20032;-44
2022/05/13 12:06:52;;;;;;;;;;;;;;;23.85;56.77;99254.84;5030133;28;20050;-42
2022/05/13 12:09:29;;;;;;;;;;;;;;;23.42;60.38;99263.59;5029114;28;19978;-42
2022/05/13 12:12:07;;;;;;;;;;;;;;;22.30;59.87;99252.22;5033030;28;20019;-42
2022/05/13 12:14:41;;;;;;;;;;;;;;;23.14;60.08;99255.31;5029091;28;20003;-44
2022/05/13 12:17:06;;;;;;;;;;;;;;;23.04;57.80;99254.41;5029024;28;19917;-42
2022/05/13 12:19:45;;;;;;;;;;;;;;;23.54;58.55;99262.63;5027804;28;19986;-44
2022/05/13 12:22:12;;;;;;;;;;;;;;;21.97;65.37;99269.53;5027753;28;19928;-42
2022/05/13 12:24:56;;;;;;;;;;;;;;;22.65;66.15;99256.53;5011396;28;19921;-42
2022/05/13 12:27:40;;;;;;;;;;;;;;;23.23;60.14;99265.09;5029080;28;19922;-44
2022/05/13 12:30:11;;;;;;;;;;;;;;;22.01;62.37;99263.13;5033344;28;20345;-44
2022/05/13 12:32:36;;;;;;;;;;;;;;;21.60;67.49;99277.53;5027298;28;19932;-44
2022/05/13 12:37:46;;;;;;;;;;;;;;;22.76;65.42;99267.03;5012713;28;19928;-43
2022/05/13 12:40:23;;;;;;;;;;;;;;;21.81;65.67;99276.88;5035982;28;19916;-44
2022/05/13 12:42:52;;;;;;;;;;;;;;;22.39;70.26;99263.81;5033170;28;20331;-45
2022/05/13 12:45:21;;;;;;;;;;;;;;;23.02;68.81;99266.81;5028312;28;20016;-44
2022/05/13 12:48:08;;;;;;;;;;;;;;;22.27;74.05;99271.66;5026383;28;19928;-44
2022/05/13 12:50:39;;;;;;;;;;;;;;;22.39;69.86;99263.81;5026440;28;19940;-44
2022/05/13 12:53:23;;;;;;;;;;;;;;;23.10;66.90;99264.41;5027264;28;19925;-44
2022/05/13 12:55:48;;;;;;;;;;;;;;;23.44;61.92;99261.69;5029943;28;19924;-44
2022/05/13 12:58:13;;;;;;;;;;;;;;;23.16;64.73;99266.56;5011021;28;19936;-44
2022/05/13 13:00:43;;;;;;;;;;;;;;;21.97;70.22;99256.44;5012222;28;19917;-44
2022/05/13 13:03:09;;;;;;;;;;;;;;;22.67;70.65;99259.88;5011462;28;20622;-44
2022/05/13 13:05:36;;;;;;;;;;;;;;;23.17;62.38;99255.06;5010899;28;20726;-44
2022/05/13 13:08:15;;;;;;;;;;;;;;;23.30;63.31;99254.94;5026922;28;19956;-44
2022/05/13 13:10:59;;;;;;;;;;;;;;;22.79;67.58;99256.31;5028738;28;19927;-44
2022/05/13 13:13:34;;;;;;;;;;;;;;;22.70;66.74;99252.59;5033673;28;19924;-44
2022/05/13 13:16:00;;;;;;;;;;;;;;;23.07;66.41;99246.25;5011226;28;19931;-44
2022/05/13 13:18:33;;;;;;;;;;;;;;;24.79;54.82;99239.84;5010143;28;19917;-44
2022/05/13 13:20:59;;;;;;;;;;;;;;;23.82;58.03;99245.44;5029452;28;19921;-44